Latest Coastal Weather Observations for Gabo Island (VIC)

IDN60701

Issued at 9:11 am EDT Thursday 24 October 2019 (issued every 10 minutes, with the page automatically refreshed every 10 minutes)

About coastal observations | Map of coastal stations | Coastal observations for NSW | Marine services | Other Formats
Station Details ID: 084016 Name: GABO ISLAND LIGHTHOUSE Lat: -37.57 Lon: 149.92 Height: 15.2 m
Data from the previous 72 hours. | See also: Recent months at Gabo Island (VIC)
Date/Time
EDT
Wind Sea
Height
m
Swell Vis
km
Cloud Weather Temp
°C
Press
hPa
Rain since
9am
mm
Dir  Spd
kts
Gust
kts
Height
m
Period
s
Dir
24/09:00am NE 8 11 - - - - - - - 16.8 1017.7 0.0
24/08:30am NE 5 8 - - - - - - - 15.5 1017.9 0.0
24/08:00am NNE 9 10 - - - - - - - 14.1 1017.9 0.0
24/07:30am NNE 9 11 - - - - - - - 14.2 1017.9 0.0
24/07:00am NNE 9 11 - - - - - - - 14.0 1017.7 0.0
24/06:30am NNE 6 7 - - - - - - - 12.7 1017.8 0.0
24/06:00am NNE 4 5 - - - - - - - 12.1 1017.6 0.0
24/05:30am NNE 2 5 - - - - - - - 11.3 1017.5 0.0
24/05:00am NNE 1 3 - - - - - - - 11.9 1017.3 0.0
24/04:30am NW 3 4 - - - - - - - 11.6 1017.2 0.0
24/04:00am W 5 6 - - - - - - - 11.4 1017.3 0.0
24/03:30am WNW 6 7 - - - - - - - 11.2 1017.4 0.0
24/03:00am W 5 6 <0.5 0.3 11 S 30 Clear Fine 11.4 1018.0 0.0
24/02:30am W 8 9 - - - - - - - 12.0 1018.2 0.0
24/02:00am WSW 6 7 - - - - - - - 11.4 1018.5 0.0
24/01:30am W 3 4 - - - - - - - 12.4 1018.7 0.0
24/01:00am W 5 6 - - - - - - - 12.5 1019.0 0.0
24/12:30am CALM 0 0 - - - - - - - 12.8 1019.2 0.0
24/12:00am NNE 4 4 - - - - - - - 13.0 1019.4 0.0
 
Date/Time
EDT
Wind Sea
Height
m
Swell Vis
km
Cloud Weather Temp
°C
Press
hPa
Rain since
9am
mm
Dir  Spd
kts
Gust
kts
Height
m
Period
s
Dir
23/11:30pm NNW 3 4 - - - - - - - 11.8 1019.7 0.0
23/11:00pm W 5 5 - - - - - - - 12.6 1019.7 0.0
23/10:30pm W 5 6 - - - - - - - 13.4 1020.0 0.0
23/10:00pm NW 4 5 - - - - - - - 14.2 1020.0 0.0
23/09:30pm CALM 0 0 - - - - - - - 13.8 1020.1 0.0
23/09:00pm CALM 0 0 <0.5 0.3 11 S 20 Clear Fine 14.8 1020.1 0.0
23/08:30pm CALM 0 0 - - - - - - - 14.6 1019.8 0.0
23/08:00pm CALM 0 0 - - - - - - - 15.3 1019.5 0.0
23/07:30pm E 3 4 - - - - - - - 15.7 1019.2 0.0
23/07:00pm ESE 3 4 - - - - - - - 16.4 1019.0 0.0
23/06:30pm ENE 3 4 - - - - - - - 16.7 1018.7 0.0
23/06:00pm E 3 4 - - - - - - - 16.9 1018.5 0.0
23/05:30pm SSE 4 6 - - - - - - - 17.3 1018.4 0.0
23/05:00pm ENE 3 4 - - - - - - - 17.2 1018.4 0.0
23/04:30pm S 4 5 - - - - - - - 17.4 1018.6 0.0
23/04:00pm S 4 5 - - - - - - - 17.8 1019.0 0.0
23/03:30pm S 5 6 - - - - - - - 17.7 1019.2 0.0
23/03:00pm S 5 6 <0.5 0.3 11 S 20 Mostly clear Fine 17.8 1019.3 0.0
23/02:30pm SSE 5 6 - - - - - - - 17.7 1019.6 0.0
23/02:00pm SE 4 5 - - - - - - - 17.7 1019.7 0.0
23/01:30pm S 5 6 - - - - - - - 17.4 1019.9 0.0
23/01:00pm S 6 7 - - - - - - - 17.3 1020.1 0.0
23/12:30pm S 7 9 - - - - - - - 17.4 1020.5 0.0
23/12:00pm S 8 10 - - - - - - - 17.8 1020.8 0.0
23/11:30am SSW 9 11 - - - - - - - 17.6 1021.1 0.0
23/11:00am S 7 8 - - - - - - - 17.7 1021.1 0.0
23/10:30am SSE 7 8 - - - - - - - 17.0 1021.1 0.0
23/10:00am S 7 8 - - - - - - - 16.2 1021.2 0.0
23/09:30am SSW 5 6 - - - - - - - 15.0 1021.0 0.0
23/09:00am SSW 4 5 <0.5 0.5 10 S 25 Clear Fine 15.0 1020.9 0.0
23/08:30am W 4 5 - - - - - - - 14.4 1021.2 0.0
23/08:00am WSW 5 7 - - - - - - - 13.6 1021.3 0.0
23/07:30am W 3 4 - - - - - - - 13.1 1021.1 0.0
23/07:00am NNW 5 6 - - - - - - - 13.2 1021.2 0.0
23/06:30am NNW 5 6 - - - - - - - 11.8 1021.1 0.0
23/06:00am NNE 6 8 - - - - - - - 12.3 1021.1 0.0
23/05:30am NNE 6 7 - - - - - - - 11.4 1021.1 0.0
23/05:00am NNE 7 9 - - - - - - - 12.6 1021.2 0.0
23/04:30am NNE 7 9 - - - - - - - 12.2 1021.2 0.0
23/04:00am NNE 5 6 - - - - - - - 10.3 1021.5 0.0
23/03:30am NNW 6 7 - - - - - - - 10.7 1021.8 0.0
23/03:00am N 7 8 <0.5 0.5 9 S 30 Clear Fine 11.6 1022.1 0.0
23/02:30am N 7 8 - - - - - - - 10.6 1022.3 0.0
23/02:00am NNE 3 4 - - - - - - - 10.8 1022.7 0.0
23/01:30am N 6 7 - - - - - - - 10.4 1023.0 0.0
23/01:00am NNE 6 7 - - - - - - - 11.4 1023.5 0.0
23/12:30am NNE 7 8 - - - - - - - 12.2 1023.8 0.0
23/12:00am NNE 6 7 - - - - - - - 10.9 1024.1 0.0
 
Date/Time
EDT
Wind Sea
Height
m
Swell Vis
km
Cloud Weather Temp
°C
Press
hPa
Rain since
9am
mm
Dir  Spd
kts
Gust
kts
Height
m
Period
s
Dir
22/11:30pm NNE 5 6 - - - - - - - 11.1 1024.3 0.0
22/11:00pm N 7 9 - - - - - - - 12.4 1024.5 0.0
22/10:30pm NNE 8 10 - - - - - - - 12.7 1024.8 0.0
22/10:00pm NNE 9 10 - - - - - - - 12.7 1025.0 0.0
22/09:30pm N 7 9 - - - - - - - 11.7 1025.1 0.0
22/09:00pm N 5 6 <0.5 1.0 9 S 30 Mostly clear Fine 11.2 1025.2 0.0
22/08:30pm ENE 3 4 - - - - - - - 11.9 1025.1 0.0
22/08:00pm SSE 3 4 - - - - - - - 12.8 1025.0 0.0
22/07:30pm SSE 4 5 - - - - - - - 13.1 1024.9 0.0
22/07:00pm S 5 6 - - - - - - - 13.7 1024.8 0.0
22/06:30pm S 7 9 - - - - - - - 14.0 1024.7 0.0
22/06:00pm SSW 9 11 - - - - - - - 14.7 1024.5 0.0
22/05:30pm SSW 11 13 - - - - - - - 14.6 1024.5 0.0
22/05:00pm SSW 13 16 - - - - - - - 15.0 1024.3 0.0
22/04:30pm SSW 15 17 - - - - - - - 14.8 1024.2 0.0
22/04:00pm SSW 15 19 - - - - - - - 15.5 1024.3 0.0
22/03:30pm SSW 17 20 - - - - - - - 14.7 1024.5 0.0
22/03:00pm SSW 16 19 - - - - - - - 14.9 1024.8 0.0
22/02:30pm SSW 16 20 - - - - - - - 14.9 1025.0 0.0
22/02:00pm SSW 18 23 - - - - - - - 14.4 1025.2 0.0
22/01:30pm SSW 19 22 - - - - - - - 14.8 1025.3 0.0
22/01:00pm SSW 18 20 - - - - - - - 14.5 1025.4 0.0
22/12:30pm SSW 17 19 - - - - - - - 14.4 1025.7 0.0
22/12:00pm SW 18 20 - - - - - - - 14.1 1026.0 0.0
22/11:30am SW 17 20 - - - - - - - 13.8 1026.3 0.0
22/11:00am SW 16 19 - - - - - - - 13.9 1026.5 0.0
22/10:30am SW 13 17 - - - - - - - 13.8 1026.7 0.0
22/10:00am SW 15 19 - - - - - - - 13.5 1026.7 0.0
22/09:30am WSW 12 16 - - - - - - - 13.1 1026.5 0.0
22/09:00am W 12 16 1 0.5 10 S 15 Cloudy Fine 12.7 1026.2 0.0
22/08:30am W 13 16 - - - - - - - 12.4 1026.1 0.0
22/08:00am W 13 16 - - - - - - - 11.9 1026.1 0.0
22/07:30am W 12 16 - - - - - - - 11.6 1025.8 0.0
22/07:00am W 12 15 - - - - - - - 11.3 1025.6 0.0
22/06:30am W 11 14 - - - - - - - 11.4 1025.5 0.0
22/06:00am W 11 14 - - - - - - - 11.2 1025.1 0.0
22/05:30am W 11 13 - - - - - - - 11.6 1024.8 0.0
22/05:00am WSW 11 13 - - - - - - - 11.5 1024.7 0.0
22/04:30am WSW 9 11 - - - - - - - 11.4 1024.6 0.0
22/04:00am W 7 10 - - - - - - - 11.4 1024.5 0.0
22/03:30am W 9 11 - - - - - - - 11.5 1024.5 0.0
22/03:00am WNW 8 10 1 1.0 9 SW 40 Mostly clear Fine 11.2 1024.7 0.0
22/02:30am W 8 10 - - - - - - - 11.5 1024.9 0.0
22/02:00am W 8 10 - - - - - - - 11.6 1025.0 0.0
22/01:30am WNW 7 8 - - - - - - - 11.5 1025.4 0.0
22/01:00am NW 7 9 - - - - - - - 11.6 1025.7 0.0
22/12:30am NW 7 8 - - - - - - - 11.5 1025.9 0.0
22/12:00am NW 7 9 - - - - - - - 12.1 1026.1 0.0
 
Date/Time
EDT
Wind Sea
Height
m
Swell Vis
km
Cloud Weather Temp
°C
Press
hPa
Rain since
9am
mm
Dir  Spd
kts
Gust
kts
Height
m
Period
s
Dir
21/11:30pm NW 7 8 - - - - - - - 11.9 1025.9 0.0
21/11:00pm WNW 7 8 - - - - - - - 12.4 1026.0 0.0
21/10:30pm WNW 6 9 - - - - - - - 12.4 1026.1 0.0
21/10:00pm WSW 8 10 - - - - - - - 13.0 1026.4 0.0
21/09:30pm WSW 11 13 - - - - - - - 13.4 1026.4 0.0
21/09:00pm SW 12 15 1 1.5 8 SW 40 Mostly clear Fine 13.9 1026.3 0.0
21/08:30pm SW 15 18 - - - - - - - 14.0 1025.9 0.0
21/08:00pm SW 17 19 - - - - - - - 14.1 1025.7 0.0
21/07:30pm SW 18 20 - - - - - - - 14.1 1025.6 0.0
21/07:00pm SSW 20 23 - - - - - - - 14.2 1025.3 0.0
21/06:30pm SSW 21 24 - - - - - - - 14.6 1025.2 0.0
21/06:00pm SSW 23 26 - - - - - - - 14.7 1024.9 0.0
21/05:30pm SSW 22 25 - - - - - - - 14.7 1024.8 0.0
21/05:00pm SSW 22 26 - - - - - - - 15.0 1024.8 0.0
21/04:30pm SSW 24 28 - - - - - - - 14.8 1025.0 0.0
21/04:00pm SSW 26 30 - - - - - - - 14.7 1025.0 0.0
21/03:30pm SSW 27 32 - - - - - - - 14.5 1024.9 0.0
21/03:00pm SSW 26 30 2 2.0 8 SW 30 Mostly clear Fine 14.5 1025.1 0.0
21/02:30pm SSW 27 31 - - - - - - - 14.4 1025.3 0.0
21/02:00pm SSW 26 30 - - - - - - - 14.7 1025.4 0.0
21/01:30pm SSW 26 30 - - - - - - - 14.5 1025.5 0.0
21/01:00pm SSW 26 31 - - - - - - - 14.5 1025.7 0.0
21/12:30pm SW 29 34 - - - - - - - 14.5 1025.9 0.0
21/12:00pm SW 29 33 - - - - - - - 14.3 1026.2 0.0
21/11:30am SW 27 32 - - - - - - - 14.5 1026.4 0.0
21/11:00am SW 25 28 - - - - - - - 14.2 1026.8 0.0
21/10:30am SW 19 25 - - - - - - - 14.9 1026.9 0.0
21/10:00am WSW 17 20 - - - - - - - 14.9 1027.0 0.0
21/09:30am WSW 21 26 - - - - - - - 14.0 1026.9 0.0

Other formats

Comma delimited format used in spreadsheet applications
http://www.bom.gov.au/fwo/IDN60701/IDN60701.94933.axf

JavaScript Object Notation format (JSON) in row-major order
http://www.bom.gov.au/fwo/IDN60701/IDN60701.94933.json

Data quality

Most of these data are generated automatically and are frequently updated. Quality checks on data are not normally performed. It is possible for incorrect values to appear. Refer to information at About Latest Weather Observations and please check the disclaimer before using these data.